Skookumchuck, Canada
Current Conditions -  °F | °C
As of 7:00 PM on Wednesday 26 Nov 2014 (Local Time) from CYXC Reporting Station
Light Snow Light Snow  
Wind Chill: 25°   Ceiling: 1200
Heat Index: 30°   Visibility: 5mi
Dew Point: 28°   Wind: 5mph
Humidity: 93%   Direction: 270°W
Pressure: 30.02"   Gusts: NA
Location:  49.9°N, 115.77°W
Report Text: CYXC 270200Z 27004KT 5SM -SN BR SCT005 BKN012 OVC020 M01/M02 A3002 RMK SF3SC3SC2 SLP200
Loading
Personal Weather Stations






























Interactive Weather Map New forecast layout! Learn more

10-Day Weather Forecast

Advertisements
Track Severe Weather on mobile